Time;durP1;ratioP1;P1;durP2;ratioP2;P2;SDS_P1;SDS_P2;PMS_P1;PMS_P2;Temp;Humidity;BMP_temperature;BMP_pressure;BME280_temperature;BME280_humidity;BME280_pressure;Samples;Min_cycle;Max_cycle;Signal;HPM_P1;HPM_P2
2022/07/08 00:03:06;;;;;;;2.50;1.20;;;25.20;54.20;;;;;;220356;1267;23842;-52
2022/07/08 00:08:10;;;;;;;2.00;1.40;;;25.20;54.20;;;;;;220352;1270;24276;-51
2022/07/08 00:13:14;;;;;;;2.30;1.30;;;25.20;54.20;;;;;;220155;1267;25360;-51
2022/07/08 00:18:17;;;;;;;1.80;1.20;;;25.20;54.60;;;;;;220908;1267;25271;-53
2022/07/08 00:23:21;;;;;;;2.10;1.40;;;25.20;54.20;;;;;;220545;1267;22564;-53
2022/07/08 00:28:25;;;;;;;1.80;1.30;;;25.20;54.20;;;;;;220562;1267;24042;-50
2022/07/08 00:33:29;;;;;;;1.70;1.10;;;25.20;54.20;;;;;;220411;1267;22526;-52
2022/07/08 00:38:33;;;;;;;2.30;1.50;;;25.20;54.20;;;;;;220166;1268;22551;-51
2022/07/08 00:43:40;;;;;;;1.60;1.20;;;25.20;54.20;;;;;;220338;1267;25457;-53
2022/07/08 00:48:44;;;;;;;1.70;1.20;;;25.20;54.20;;;;;;220534;1267;25334;-52
2022/07/08 00:53:52;;;;;;;1.70;1.40;;;25.20;54.70;;;;;;220796;1267;25346;-52
2022/07/08 00:58:56;;;;;;;2.00;1.10;;;25.20;54.60;;;;;;220386;1267;24361;-52
2022/07/08 01:04:00;;;;;;;3.60;1.40;;;25.10;54.20;;;;;;220659;1270;22549;-51
2022/07/08 01:09:06;;;;;;;1.90;1.30;;;25.20;54.30;;;;;;220753;1267;23963;-49
2022/07/08 01:14:10;;;;;;;1.80;1.20;;;25.20;54.60;;;;;;220438;1270;24276;-52
2022/07/08 01:19:13;;;;;;;1.70;1.20;;;25.10;54.30;;;;;;220126;1267;22571;-49
2022/07/08 01:24:18;;;;;;;2.30;1.50;;;25.10;54.40;;;;;;220375;1267;22988;-52
2022/07/08 01:29:21;;;;;;;2.20;1.20;;;25.10;54.30;;;;;;220560;1267;22532;-52
2022/07/08 01:34:25;;;;;;;1.70;1.30;;;25.10;54.40;;;;;;220231;1267;286396;-51
2022/07/08 01:39:29;;;;;;;1.60;1.20;;;25.10;54.80;;;;;;220522;1267;26565;-54
2022/07/08 01:44:32;;;;;;;2.70;1.30;;;25.10;54.60;;;;;;220557;1267;26660;-51
2022/07/08 01:49:36;;;;;;;2.10;1.40;;;25.10;54.50;;;;;;220461;1267;23087;-52
2022/07/08 01:54:39;;;;;;;1.80;1.30;;;25.10;55.10;;;;;;220214;1268;25397;-50
2022/07/08 01:59:46;;;;;;;1.60;1.10;;;25.10;54.80;;;;;;220197;1269;22585;-51
2022/07/08 02:04:50;;;;;;;2.00;1.20;;;25.10;54.60;;;;;;220397;1267;22558;-50
2022/07/08 02:09:53;;;;;;;1.90;1.40;;;25.10;54.60;;;;;;220799;1267;22557;-52
2022/07/08 02:15:02;;;;;;;2.00;1.40;;;25.10;54.60;;;;;;220743;1267;23825;-52
2022/07/08 02:20:10;;;;;;;1.80;1.40;;;25.10;55.00;;;;;;220230;1267;22520;-50
2022/07/08 02:25:14;;;;;;;2.00;1.20;;;25.10;54.70;;;;;;220403;1267;25309;-50
2022/07/08 02:30:17;;;;;;;1.90;1.20;;;25.00;55.10;;;;;;220375;1268;25233;-54
2022/07/08 02:35:21;;;;;;;1.90;1.40;;;25.00;54.60;;;;;;220427;1267;25287;-51
2022/07/08 02:40:25;;;;;;;3.00;1.80;;;25.00;54.70;;;;;;220102;1268;25282;-50
2022/07/08 02:45:28;;;;;;;2.30;1.20;;;25.10;54.70;;;;;;220306;1267;22547;-52
2022/07/08 02:50:32;;;;;;;2.30;1.40;;;25.00;54.70;;;;;;220272;1267;25353;-52
2022/07/08 02:55:36;;;;;;;2.70;1.40;;;25.00;55.10;;;;;;220223;1268;22541;-52
2022/07/08 03:00:40;;;;;;;1.80;1.30;;;25.00;54.80;;;;;;220444;1267;25242;-52
2022/07/08 03:05:43;;;;;;;1.70;1.40;;;25.00;54.80;;;;;;220227;1270;25354;-49
2022/07/08 03:10:49;;;;;;;1.60;1.20;;;25.00;55.20;;;;;;220518;1268;25380;-51
2022/07/08 03:15:52;;;;;;;2.00;1.40;;;25.00;55.20;;;;;;220473;1270;25241;-50
2022/07/08 03:20:56;;;;;;;1.70;1.30;;;25.00;54.70;;;;;;220390;1269;22539;-54
2022/07/08 03:26:01;;;;;;;1.90;1.40;;;25.00;55.20;;;;;;220752;1267;22515;-52
2022/07/08 03:31:04;;;;;;;2.10;1.50;;;25.00;54.90;;;;;;220521;1267;25242;-50
2022/07/08 03:36:09;;;;;;;1.90;1.40;;;24.90;54.90;;;;;;220348;1270;23816;-52
2022/07/08 03:41:20;;;;;;;1.70;1.40;;;24.90;55.30;;;;;;220784;1267;22557;-51
2022/07/08 03:46:24;;;;;;;1.90;1.50;;;24.90;55.00;;;;;;220371;1267;25350;-49
2022/07/08 03:51:28;;;;;;;1.80;1.50;;;24.90;55.30;;;;;;220574;1267;22571;-48
2022/07/08 03:56:32;;;;;;;2.10;1.60;;;24.90;55.10;;;;;;220259;1267;24205;-50
2022/07/08 04:01:36;;;;;;;1.90;1.50;;;24.90;55.40;;;;;;220757;1268;25244;-53
2022/07/08 04:06:39;;;;;;;2.20;1.50;;;24.90;55.10;;;;;;220100;1270;24102;-52
2022/07/08 04:11:49;;;;;;;1.90;1.50;;;24.90;55.10;;;;;;220448;1267;22524;-52
2022/07/08 04:16:58;;;;;;;1.70;1.30;;;24.90;55.20;;;;;;220155;1268;25308;-50
2022/07/08 04:22:02;;;;;;;2.40;1.40;;;24.90;55.50;;;;;;220357;1267;22573;-52
2022/07/08 04:27:06;;;;;;;2.00;1.50;;;24.90;55.20;;;;;;220732;1268;22705;-48
2022/07/08 04:32:09;;;;;;;2.20;1.50;;;24.90;55.30;;;;;;220331;1267;22542;-52
2022/07/08 04:37:13;;;;;;;2.20;1.60;;;24.90;55.30;;;;;;220583;1268;25287;-52
2022/07/08 04:42:17;;;;;;;2.60;1.60;;;24.90;55.30;;;;;;220304;1268;23944;-50
2022/07/08 04:47:20;;;;;;;1.90;1.50;;;24.80;55.60;;;;;;220763;1268;22563;-51
2022/07/08 04:52:25;;;;;;;2.30;1.60;;;24.90;55.30;;;;;;220287;1267;24296;-51
2022/07/08 04:57:32;;;;;;;2.10;1.60;;;24.80;55.30;;;;;;220561;1268;22528;-51
2022/07/08 05:02:36;;;;;;;2.20;1.50;;;24.80;55.30;;;;;;220123;1267;22631;-52
2022/07/08 05:07:40;;;;;;;1.90;1.40;;;24.80;55.30;;;;;;220139;1270;22560;-51
2022/07/08 05:12:44;;;;;;;1.80;1.30;;;24.80;55.30;;;;;;220728;1267;24324;-51
2022/07/08 05:17:49;;;;;;;2.50;1.70;;;24.80;55.30;;;;;;220622;1267;22525;-50
2022/07/08 05:22:52;;;;;;;2.40;1.50;;;24.80;55.50;;;;;;220316;1267;24219;-50
2022/07/08 05:27:58;;;;;;;2.80;1.50;;;24.80;55.50;;;;;;220606;1270;22530;-51
2022/07/08 05:33:02;;;;;;;4.00;1.60;;;24.80;55.50;;;;;;220340;1267;25298;-50
2022/07/08 05:38:06;;;;;;;2.70;1.70;;;24.80;55.70;;;;;;220210;1267;26461;-50
2022/07/08 05:43:10;;;;;;;2.50;1.70;;;24.80;55.40;;;;;;220558;1267;22669;-50
2022/07/08 05:48:13;;;;;;;2.10;1.40;;;24.80;55.40;;;;;;220308;1267;22557;-53
2022/07/08 05:53:17;;;;;;;2.20;1.60;;;24.80;55.40;;;;;;220382;1267;22544;-50
2022/07/08 05:58:21;;;;;;;3.50;1.70;;;24.80;55.20;;;;;;220310;1268;24281;-51
2022/07/08 06:03:24;;;;;;;2.40;1.70;;;24.80;55.30;;;;;;220311;1268;25295;-53
2022/07/08 06:08:28;;;;;;;3.50;1.80;;;24.80;55.30;;;;;;220199;1267;25247;-54
2022/07/08 06:13:33;;;;;;;2.70;1.90;;;24.80;55.40;;;;;;220237;1267;25292;-53
2022/07/08 06:18:37;;;;;;;3.30;2.00;;;24.80;55.00;;;;;;220402;1267;25236;-52
2022/07/08 06:23:41;;;;;;;3.40;2.00;;;24.80;55.30;;;;;;220587;1267;22528;-53
2022/07/08 06:28:44;;;;;;;3.10;2.10;;;24.80;55.50;;;;;;220419;1270;22627;-51
2022/07/08 06:33:49;;;;;;;4.80;2.00;;;24.80;55.60;;;;;;220055;1267;26293;-54
2022/07/08 06:38:53;;;;;;;2.30;1.70;;;24.80;56.10;;;;;;220514;1270;25250;-52
2022/07/08 06:44:05;;;;;;;3.60;1.60;;;24.80;55.70;;;;;;220157;1270;23903;-52
2022/07/08 06:49:13;;;;;;;4.90;1.80;;;24.80;55.90;;;;;;219890;1270;22522;-54
2022/07/08 06:54:35;;;;;;;2.50;1.70;;;24.80;55.60;;;;;;220237;1272;26045;-51
2022/07/08 06:59:47;;;;;;;3.50;1.90;;;24.80;55.60;;;;;;220032;1271;24208;-52
2022/07/08 07:05:19;;;;;;;4.60;2.10;;;24.90;56.10;;;;;;220348;1271;22525;-55
2022/07/08 07:10:23;;;;;;;4.00;1.80;;;24.90;55.70;;;;;;220094;1271;24241;-52
2022/07/08 07:15:26;;;;;;;5.80;2.20;;;24.90;55.80;;;;;;220414;1268;24230;-55
2022/07/08 07:20:30;;;;;;;4.30;2.30;;;24.90;55.80;;;;;;220243;1268;22548;-50
2022/07/08 07:25:34;;;;;;;4.40;2.10;;;24.90;55.80;;;;;;220238;1268;25278;-52
2022/07/08 07:30:37;;;;;;;5.60;2.20;;;24.90;55.80;;;;;;220028;1269;22568;-52
2022/07/08 07:35:47;;;;;;;3.40;2.10;;;24.90;56.20;;;;;;219921;1267;24215;-52
2022/07/08 07:40:52;;;;;;;4.50;2.20;;;24.90;55.80;;;;;;220299;1268;24221;-56
2022/07/08 07:45:56;;;;;;;2.60;1.70;;;24.90;55.90;;;;;;220491;1271;25431;-54
2022/07/08 07:50:59;;;;;;;5.30;2.10;;;24.90;56.10;;;;;;220620;1271;22949;-54
2022/07/08 07:56:04;;;;;;;4.20;2.10;;;24.90;55.80;;;;;;220277;1268;22538;-53
2022/07/08 08:01:07;;;;;;;4.10;1.90;;;24.90;56.00;;;;;;220240;1271;22707;-53
2022/07/08 08:06:11;;;;;;;4.10;2.00;;;25.00;55.80;;;;;;220268;1269;24373;-54
2022/07/08 08:11:15;;;;;;;5.50;2.20;;;25.00;55.80;;;;;;220220;1268;25346;-52
2022/07/08 08:16:19;;;;;;;5.00;2.20;;;25.00;56.20;;;;;;220084;1271;25302;-51
2022/07/08 08:21:26;;;;;;;4.50;2.20;;;25.00;56.00;;;;;;220075;1271;22756;-52
2022/07/08 08:26:31;;;;;;;6.50;2.20;;;25.00;55.70;;;;;;220166;1271;24200;-55
2022/07/08 08:31:35;;;;;;;5.10;2.10;;;25.10;56.10;;;;;;220512;1268;24218;-54
2022/07/08 08:36:39;;;;;;;5.40;2.10;;;25.10;55.60;;;;;;220122;1268;25242;-54
2022/07/08 08:41:50;;;;;;;4.40;2.30;;;25.10;55.70;;;;;;220212;1268;22541;-52
2022/07/08 08:46:56;;;;;;;6.90;2.50;;;25.10;55.90;;;;;;220544;1268;22569;-52
2022/07/08 08:52:03;;;;;;;5.40;2.10;;;25.10;56.00;;;;;;220365;1268;25294;-52
2022/07/08 08:57:07;;;;;;;4.20;2.30;;;25.20;56.00;;;;;;220316;1268;25382;-53
2022/07/08 09:02:22;;;;;;;3.60;2.10;;;25.20;55.90;;;;;;220038;1268;24227;-54
2022/07/08 09:07:29;;;;;;;4.00;2.40;;;25.20;55.80;;;;;;220327;1268;25534;-53
2022/07/08 09:12:33;;;;;;;7.60;2.20;;;25.20;55.80;;;;;;220329;1268;22747;-53
2022/07/08 09:17:45;;;;;;;4.30;2.00;;;25.20;55.80;;;;;;220294;1268;22529;-55
2022/07/08 09:22:52;;;;;;;5.30;2.20;;;25.20;55.70;;;;;;220079;1271;22790;-51
2022/07/08 09:27:58;;;;;;;4.80;2.40;;;25.20;55.80;;;;;;219917;1268;24253;-53
2022/07/08 09:33:03;;;;;;;5.30;2.50;;;25.30;55.70;;;;;;220314;1268;22529;-51
2022/07/08 09:38:08;;;;;;;9.90;2.00;;;25.30;55.60;;;;;;220558;1268;25433;-51
2022/07/08 09:43:13;;;;;;;5.40;2.50;;;25.30;55.90;;;;;;220536;1268;22529;-55
2022/07/08 09:48:18;;;;;;;7.00;2.10;;;25.30;55.60;;;;;;220400;1268;25313;-50
2022/07/08 09:53:27;;;;;;;5.20;2.30;;;25.30;55.40;;;;;;220422;1267;24073;-51
2022/07/08 09:58:37;;;;;;;5.00;2.10;;;25.30;55.70;;;;;;219903;1268;22547;-53
2022/07/08 10:03:42;;;;;;;4.50;2.00;;;25.30;55.40;;;;;;220098;1268;22822;-54
2022/07/08 10:08:46;;;;;;;5.40;2.10;;;25.30;55.30;;;;;;220212;1267;22566;-51
2022/07/08 10:14:05;;;;;;;3.60;2.10;;;25.30;55.30;;;;;;220433;1268;25311;-51
2022/07/08 10:19:21;;;;;;;3.80;2.20;;;25.30;55.20;;;;;;220245;1268;22655;-52
2022/07/08 10:24:28;;;;;;;3.80;2.60;;;25.40;55.70;;;;;;220181;1268;22587;-52
2022/07/08 10:29:33;;;;;;;4.50;2.20;;;25.40;55.20;;;;;;220400;1267;25216;-52
2022/07/08 10:35:12;;;;;;;3.50;1.80;;;25.40;55.10;;;;;;220050;1268;24823;-51
2022/07/08 10:40:49;;;;;;;5.00;2.50;;;25.40;55.20;;;;;;220303;1268;22529;-54
2022/07/08 10:46:13;;;;;;;4.70;2.30;;;25.40;55.40;;;;;;220306;1268;24052;-51
2022/07/08 10:51:22;;;;;;;3.90;2.00;;;25.40;55.70;;;;;;220741;1266;22654;-56
2022/07/08 10:56:50;;;;;;;4.50;2.00;;;25.40;55.40;;;;;;220033;1267;24070;-54
2022/07/08 11:02:13;;;;;;;3.90;2.10;;;25.40;55.40;;;;;;220038;1267;22542;-52
2022/07/08 11:07:33;;;;;;;4.80;2.00;;;25.40;55.30;;;;;;220291;1268;22534;-53
2022/07/08 11:12:40;;;;;;;3.30;2.20;;;25.40;55.30;;;;;;220863;1268;25569;-54
2022/07/08 11:17:50;;;;;;;3.20;1.80;;;25.40;55.60;;;;;;220158;1267;22691;-53
2022/07/08 11:22:54;;;;;;;4.70;2.50;;;25.40;55.20;;;;;;219852;1268;22563;-53
2022/07/08 11:28:00;;;;;;;4.00;2.30;;;25.40;55.10;;;;;;220015;1267;25260;-51
2022/07/08 11:33:04;;;;;;;4.40;2.10;;;25.50;55.10;;;;;;220130;1267;22697;-49
2022/07/08 11:38:08;;;;;;;5.30;1.90;;;25.50;55.00;;;;;;220147;1267;24338;-53
2022/07/08 11:43:15;;;;;;;3.70;2.00;;;25.50;55.50;;;;;;220564;1267;22546;-53
2022/07/08 11:48:22;;;;;;;3.40;1.70;;;25.50;55.10;;;;;;220560;1267;24257;-50
2022/07/08 11:53:25;;;;;;;4.90;1.80;;;25.50;55.60;;;;;;220285;1268;22578;-55
2022/07/08 11:58:30;;;;;;;4.80;2.20;;;25.50;55.00;;;;;;220387;1267;23818;-51
2022/07/08 12:03:34;;;;;;;4.70;1.90;;;25.50;54.80;;;;;;220153;1267;25252;-55
2022/07/08 12:08:43;;;;;;;4.50;2.00;;;25.40;54.40;;;;;;220083;1268;22601;-50
2022/07/08 12:13:51;;;;;;;3.30;1.90;;;25.50;54.50;;;;;;220041;1267;22541;-54
2022/07/08 12:19:04;;;;;;;3.60;1.80;;;25.50;54.30;;;;;;220037;1268;22540;-52
2022/07/08 12:24:15;;;;;;;4.10;2.00;;;25.50;54.10;;;;;;219932;1268;25297;-52
2022/07/08 12:29:22;;;;;;;3.30;1.90;;;25.60;53.70;;;;;;220146;1268;25238;-53
2022/07/08 12:34:30;;;;;;;3.80;1.70;;;25.60;53.80;;;;;;220548;1267;24262;-51
2022/07/08 12:39:47;;;;;;;3.90;1.70;;;25.60;53.70;;;;;;220425;1267;22548;-53
2022/07/08 12:44:54;;;;;;;4.90;1.70;;;25.60;53.20;;;;;;220100;1268;22545;-55
2022/07/08 12:49:59;;;;;;;5.50;1.80;;;25.50;52.90;;;;;;220507;1268;22543;-53
2022/07/08 12:55:05;;;;;;;8.70;1.60;;;25.30;49.50;;;;;;220232;1268;22539;-51
2022/07/08 13:00:09;;;;;;;3.50;1.70;;;25.30;50.10;;;;;;220691;1267;23236;-52
2022/07/08 13:05:13;;;;;;;2.80;1.30;;;25.30;49.50;;;;;;220020;1267;25229;-51
2022/07/08 13:10:23;;;;;;;8.50;1.50;;;25.40;48.90;;;;;;220366;1267;22544;-53
2022/07/08 13:15:27;;;;;;;3.00;1.40;;;25.10;47.70;;;;;;220213;1267;25404;-55
2022/07/08 13:20:30;;;;;;;3.70;1.30;;;25.10;47.90;;;;;;220124;1267;24228;-52
2022/07/08 13:25:35;;;;;;;5.40;1.70;;;25.10;47.60;;;;;;220220;1267;24040;-56
2022/07/08 13:30:38;;;;;;;7.80;1.80;;;25.10;48.60;;;;;;220214;1267;25328;-55
2022/07/08 13:35:42;;;;;;;11.00;1.40;;;25.00;48.80;;;;;;220576;1267;302446;-53
2022/07/08 13:40:46;;;;;;;6.10;1.40;;;24.90;47.90;;;;;;220236;1267;22564;-50
2022/07/08 13:45:50;;;;;;;4.40;1.30;;;25.00;48.70;;;;;;220322;1267;22537;-54
2022/07/08 13:50:53;;;;;;;4.20;1.40;;;25.10;48.50;;;;;;220438;1267;25242;-52
2022/07/08 13:55:57;;;;;;;5.70;1.40;;;25.10;49.50;;;;;;220760;1267;22608;-51
2022/07/08 14:01:02;;;;;;;4.70;1.60;;;25.20;49.10;;;;;;220525;1270;24307;-52
2022/07/08 14:06:07;;;;;;;4.20;1.80;;;25.30;49.10;;;;;;220099;1267;22553;-54
2022/07/08 14:11:10;;;;;;;5.50;1.50;;;25.30;49.80;;;;;;220025;1267;22523;-53
2022/07/08 14:16:14;;;;;;;4.40;1.60;;;25.30;50.20;;;;;;220245;1267;22553;-52
2022/07/08 14:21:18;;;;;;;3.70;1.40;;;25.30;50.10;;;;;;220114;1268;23375;-51
2022/07/08 14:26:22;;;;;;;6.10;2.00;;;25.40;50.60;;;;;;221023;1267;22544;-55
2022/07/08 14:31:25;;;;;;;4.80;1.50;;;25.40;50.30;;;;;;220460;1268;24551;-53
2022/07/08 14:36:29;;;;;;;3.90;1.50;;;25.40;50.40;;;;;;220857;1267;22614;-51
2022/07/08 14:41:33;;;;;;;4.60;1.70;;;25.40;50.90;;;;;;220534;1267;22555;-54
2022/07/08 14:46:37;;;;;;;2.90;1.40;;;25.40;50.60;;;;;;220630;1268;22551;-56
2022/07/08 14:51:42;;;;;;;6.00;1.70;;;25.40;50.60;;;;;;220601;1268;25348;-53
2022/07/08 14:56:47;;;;;;;3.30;1.60;;;25.50;50.70;;;;;;220414;1267;24259;-54
2022/07/08 15:01:50;;;;;;;4.20;1.30;;;25.40;50.80;;;;;;220510;1268;22538;-53
2022/07/08 15:06:55;;;;;;;3.40;1.60;;;25.50;50.70;;;;;;220544;1268;24218;-53
2022/07/08 15:11:59;;;;;;;2.90;1.50;;;25.40;51.10;;;;;;220536;1267;24434;-54
2022/07/08 15:17:09;;;;;;;4.50;1.60;;;25.50;50.70;;;;;;220569;1268;22550;-53
2022/07/08 15:22:16;;;;;;;2.80;1.30;;;25.40;50.50;;;;;;220386;1268;24875;-53
2022/07/08 15:27:24;;;;;;;3.20;1.50;;;25.40;50.60;;;;;;220461;1268;24304;-53
2022/07/08 15:32:31;;;;;;;4.10;1.40;;;25.40;50.40;;;;;;220062;1268;22547;-53
2022/07/08 15:37:35;;;;;;;4.10;1.40;;;25.40;50.40;;;;;;220283;1268;25416;-49
2022/07/08 15:43:01;;;;;;;4.10;1.70;;;25.50;50.70;;;;;;220443;1268;24326;-55
2022/07/08 15:48:10;;;;;;;2.50;1.40;;;25.40;50.30;;;;;;220638;1267;25236;-53
2022/07/08 15:53:15;;;;;;;;;;;25.40;50.30;;;;;;220214;1267;24424;-52
2022/07/08 15:58:21;;;;;;;4.10;1.50;;;25.40;50.50;;;;;;220322;1267;22551;-53
2022/07/08 16:03:26;;;;;;;4.70;1.50;;;25.40;50.60;;;;;;220534;1267;22554;-53
2022/07/08 16:08:34;;;;;;;3.30;1.20;;;25.40;50.60;;;;;;220739;1267;24209;-55
2022/07/08 16:13:41;;;;;;;4.00;1.60;;;25.40;50.50;;;;;;220435;1267;22554;-53
2022/07/08 16:18:47;;;;;;;5.90;1.40;;;25.40;50.50;;;;;;220895;1267;22544;-54
2022/07/08 16:23:51;;;;;;;3.60;1.40;;;25.40;50.40;;;;;;220560;1267;24342;-53
2022/07/08 16:28:55;;;;;;;5.60;1.50;;;25.40;50.50;;;;;;220626;1268;25245;-54
2022/07/08 16:33:59;;;;;;;4.40;1.50;;;25.40;50.40;;;;;;220770;1267;22540;-53
2022/07/08 16:39:03;;;;;;;4.70;1.70;;;25.40;50.10;;;;;;220132;1268;22678;-52
2022/07/08 16:44:10;;;;;;;4.50;1.80;;;25.40;50.10;;;;;;220820;1267;22546;-51
2022/07/08 16:49:14;;;;;;;4.90;1.70;;;25.30;50.00;;;;;;220549;1267;24228;-53
2022/07/08 16:54:18;;;;;;;5.90;1.60;;;25.40;49.80;;;;;;220318;1267;24195;-53
2022/07/08 16:59:25;;;;;;;6.20;2.10;;;25.40;50.00;;;;;;220094;1267;22851;-52
2022/07/08 17:04:29;;;;;;;4.50;1.90;;;25.30;49.60;;;;;;219909;1270;24229;-54
2022/07/08 17:09:32;;;;;;;5.70;1.70;;;25.30;49.50;;;;;;220054;1270;25344;-52
2022/07/08 17:14:37;;;;;;;5.60;1.80;;;25.30;49.90;;;;;;220400;1268;22538;-55
2022/07/08 17:19:43;;;;;;;4.40;1.70;;;25.30;49.50;;;;;;220420;1267;22693;-53
2022/07/08 17:24:49;;;;;;;5.10;1.60;;;25.30;49.60;;;;;;220150;1267;25666;-53
2022/07/08 17:29:54;;;;;;;6.20;1.80;;;25.30;49.70;;;;;;220180;1267;24246;-54
2022/07/08 17:34:58;;;;;;;3.30;1.60;;;25.30;50.00;;;;;;220340;1270;26593;-53
2022/07/08 17:40:02;;;;;;;7.50;2.00;;;25.30;49.70;;;;;;220170;1267;22528;-53
2022/07/08 17:45:07;;;;;;;4.00;1.90;;;25.30;49.70;;;;;;220632;1270;25294;-52
2022/07/08 17:50:15;;;;;;;4.00;1.60;;;25.30;49.70;;;;;;220537;1267;22551;-52
2022/07/08 17:55:19;;;;;;;5.80;2.10;;;25.30;49.70;;;;;;220573;1268;22547;-53
2022/07/08 18:00:22;;;;;;;8.10;2.30;;;25.30;49.60;;;;;;220412;1267;22547;-51
2022/07/08 18:05:26;;;;;;;5.20;2.20;;;25.30;49.70;;;;;;220323;1267;25244;-56
2022/07/08 18:10:33;;;;;;;5.60;2.00;;;25.30;49.70;;;;;;220738;1267;24022;-53
2022/07/08 18:15:36;;;;;;;3.80;1.80;;;25.30;50.00;;;;;;220557;1267;23908;-53
2022/07/08 18:20:40;;;;;;;3.40;1.50;;;25.30;50.10;;;;;;220590;1268;25169;-53
2022/07/08 18:25:44;;;;;;;3.50;1.60;;;25.30;49.80;;;;;;220484;1268;22550;-53
2022/07/08 18:30:49;;;;;;;3.60;1.70;;;25.30;50.00;;;;;;220672;1267;22550;-54
2022/07/08 18:35:54;;;;;;;3.60;2.00;;;25.30;50.10;;;;;;220395;1267;22552;-50
2022/07/08 18:40:57;;;;;;;5.00;1.90;;;25.20;50.10;;;;;;220690;1268;22531;-51
2022/07/08 18:46:05;;;;;;;3.80;1.80;;;25.30;50.30;;;;;;220802;1268;22548;-53
2022/07/08 18:51:12;;;;;;;4.00;1.70;;;25.20;50.30;;;;;;220549;1267;22626;-53
2022/07/08 18:56:16;;;;;;;5.50;1.60;;;25.20;50.40;;;;;;220945;1267;24262;-54
2022/07/08 19:01:20;;;;;;;5.60;2.00;;;25.20;50.40;;;;;;220462;1267;22544;-52
2022/07/08 19:06:24;;;;;;;6.60;2.00;;;25.20;50.50;;;;;;220459;1267;24261;-52
2022/07/08 19:11:30;;;;;;;4.60;1.90;;;25.20;50.60;;;;;;220192;1267;22573;-51
2022/07/08 19:16:34;;;;;;;5.80;1.90;;;25.20;50.70;;;;;;220569;1267;23754;-53
2022/07/08 19:21:38;;;;;;;3.70;1.80;;;25.20;51.10;;;;;;220444;1270;25310;-53
2022/07/08 19:26:42;;;;;;;4.20;1.80;;;25.20;51.10;;;;;;220403;1267;24212;-51
2022/07/08 19:31:46;;;;;;;2.80;1.80;;;25.10;50.80;;;;;;220242;1267;24375;-53
2022/07/08 19:36:49;;;;;;;3.50;1.80;;;25.10;51.10;;;;;;220296;1266;24314;-51
2022/07/08 19:41:53;;;;;;;3.60;1.60;;;25.10;50.90;;;;;;220203;1267;25325;-54
2022/07/08 19:46:58;;;;;;;3.30;1.40;;;25.10;50.50;;;;;;220496;1268;22647;-51
2022/07/08 19:52:02;;;;;;;4.60;1.90;;;25.10;51.10;;;;;;220312;1267;24557;-51
2022/07/08 19:57:06;;;;;;;3.70;1.80;;;25.10;51.40;;;;;;220505;1267;26541;-55
2022/07/08 20:02:10;;;;;;;3.50;1.60;;;25.10;51.80;;;;;;220406;1268;22557;-53
2022/07/08 20:07:14;;;;;;;3.00;1.70;;;25.10;51.20;;;;;;220463;1267;22539;-52
2022/07/08 20:12:18;;;;;;;3.30;1.70;;;25.10;51.60;;;;;;220748;1267;22531;-58
2022/07/08 20:17:22;;;;;;;3.20;1.70;;;25.10;51.30;;;;;;220674;1267;25234;-51
2022/07/08 20:22:25;;;;;;;2.80;1.60;;;25.10;51.40;;;;;;220464;1267;22535;-51
2022/07/08 20:27:30;;;;;;;4.10;1.60;;;25.10;51.50;;;;;;220457;1267;23460;-52
2022/07/08 20:32:34;;;;;;;5.00;1.80;;;25.10;51.50;;;;;;220227;1267;22528;-52
2022/07/08 20:37:39;;;;;;;3.30;1.80;;;25.10;51.60;;;;;;220350;1267;25241;-53
2022/07/08 20:42:43;;;;;;;3.00;1.40;;;25.00;51.60;;;;;;220588;1268;22632;-51
2022/07/08 20:47:46;;;;;;;3.20;1.70;;;25.00;51.70;;;;;;220553;1267;25242;-55
2022/07/08 20:52:50;;;;;;;3.10;1.70;;;25.10;51.80;;;;;;220470;1267;26534;-49
2022/07/08 20:57:56;;;;;;;3.70;1.80;;;25.00;51.70;;;;;;220140;1270;22573;-52
2022/07/08 21:03:00;;;;;;;4.10;1.90;;;25.00;51.80;;;;;;220307;1267;22602;-52
2022/07/08 21:08:05;;;;;;;3.70;1.50;;;25.00;51.90;;;;;;220242;1270;22551;-50
2022/07/08 21:13:09;;;;;;;4.70;1.60;;;25.00;51.90;;;;;;220358;1268;23184;-50
2022/07/08 21:18:12;;;;;;;4.20;1.50;;;24.90;51.80;;;;;;220239;1267;22564;-52
2022/07/08 21:23:17;;;;;;;2.70;1.40;;;24.90;52.00;;;;;;220405;1267;24560;-53
2022/07/08 21:28:26;;;;;;;3.30;1.70;;;25.00;52.00;;;;;;220294;1267;22528;-51
2022/07/08 21:33:41;;;;;;;3.10;1.80;;;24.90;52.00;;;;;;220352;1267;22841;-53
2022/07/08 21:38:55;;;;;;;2.30;1.60;;;24.90;52.00;;;;;;220105;1270;24216;-52
2022/07/08 21:44:03;;;;;;;2.50;1.50;;;24.90;52.10;;;;;;220303;1270;22545;-53
2022/07/08 21:49:07;;;;;;;2.90;1.60;;;24.90;52.20;;;;;;220068;1268;23901;-53
2022/07/08 21:54:21;;;;;;;;;;;;;;;;;;;;;
2022/07/08 21:59:30;;;;;;;2.90;1.40;;;24.90;52.20;;;;;;220459;1267;24333;-54
2022/07/08 22:04:42;;;;;;;2.80;1.50;;;24.90;52.60;;;;;;220259;1268;22551;-56
2022/07/08 22:09:46;;;;;;;2.00;1.30;;;24.90;52.30;;;;;;220700;1267;25335;-53
2022/07/08 22:14:50;;;;;;;2.30;1.30;;;24.90;52.30;;;;;;220410;1267;25234;-52
2022/07/08 22:19:55;;;;;;;3.90;1.60;;;24.90;52.40;;;;;;220493;1267;24321;-50
2022/07/08 22:24:58;;;;;;;3.90;1.60;;;24.90;52.40;;;;;;220283;1267;24222;-52
2022/07/08 22:30:04;;;;;;;2.80;1.40;;;24.90;52.40;;;;;;220178;1268;23906;-50
2022/07/08 22:35:09;;;;;;;2.90;1.30;;;24.90;52.80;;;;;;220261;1267;24260;-53
2022/07/08 22:40:13;;;;;;;3.80;1.50;;;24.80;52.40;;;;;;220700;1267;24290;-55
2022/07/08 22:45:16;;;;;;;3.50;1.50;;;24.80;52.40;;;;;;220590;1267;22607;-50
2022/07/08 22:50:22;;;;;;;2.80;1.40;;;24.80;52.50;;;;;;220251;1267;22544;-52
2022/07/08 22:55:25;;;;;;;1.90;1.40;;;24.80;52.50;;;;;;220625;1267;25235;-52
2022/07/08 23:00:29;;;;;;;3.90;1.30;;;24.80;52.50;;;;;;220070;1268;22544;-54
2022/07/08 23:05:32;;;;;;;4.40;1.40;;;24.80;52.50;;;;;;220423;1267;22553;-52
2022/07/08 23:10:36;;;;;;;2.40;1.40;;;24.80;52.60;;;;;;220349;1267;22604;-52
2022/07/08 23:15:40;;;;;;;3.80;1.50;;;24.80;52.50;;;;;;220303;1267;22528;-51
2022/07/08 23:20:44;;;;;;;5.60;1.50;;;24.80;52.60;;;;;;220305;1267;25308;-53
2022/07/08 23:25:48;;;;;;;2.20;1.30;;;24.80;53.00;;;;;;220387;1270;22566;-55
2022/07/08 23:30:53;;;;;;;2.40;1.50;;;24.70;52.60;;;;;;220252;1270;25230;-52
2022/07/08 23:36:01;;;;;;;2.10;1.40;;;24.80;52.60;;;;;;220224;1270;24398;-52
2022/07/08 23:41:04;;;;;;;2.10;1.30;;;24.70;52.60;;;;;;220237;1268;22561;-50
2022/07/08 23:46:08;;;;;;;2.60;1.30;;;24.70;52.60;;;;;;220646;1267;25278;-54
2022/07/08 23:51:12;;;;;;;2.70;1.30;;;24.70;52.70;;;;;;220301;1267;22550;-53
2022/07/08 23:56:16;;;;;;;2.50;1.30;;;24.70;52.70;;;;;;220898;1267;22545;-53
